Time;durP1;ratioP1;P1;durP2;ratioP2;P2;SDS_P1;SDS_P2;PMS_P1;PMS_P2;Temp;Humidity;BMP_temperature;BMP_pressure;BME280_temperature;BME280_humidity;BME280_pressure;Samples;Min_cycle;Max_cycle;Signal;HPM_P1;HPM_P2
2023/10/01 00:00:36;;;;;;;11.90;7.40;;;;;;;14.49;83.13;102304.13;5072951;28;20050;-60
2023/10/01 00:03:04;;;;;;;14.48;7.53;;;;;;;14.56;82.76;102318.44;5072937;28;20028;-61
2023/10/01 00:05:29;;;;;;;13.32;7.50;;;;;;;14.50;82.91;102314.78;5072857;28;20039;-61
2023/10/01 00:07:54;;;;;;;12.38;7.32;;;;;;;14.46;83.13;102317.34;5072810;28;20033;-60
2023/10/01 00:10:22;;;;;;;16.45;9.43;;;;;;;14.47;83.17;102327.09;5072929;28;20025;-61
2023/10/01 00:12:52;;;;;;;13.13;7.95;;;;;;;14.51;82.84;102323.66;5072882;28;20020;-60
2023/10/01 00:15:21;;;;;;;12.18;7.82;;;;;;;14.53;82.68;102324.59;5072913;28;20394;-61
2023/10/01 00:17:50;;;;;;;13.30;8.07;;;;;;;14.46;82.67;102320.88;5073183;28;20035;-60
2023/10/01 00:20:22;;;;;;;12.80;8.52;;;;;;;14.47;82.82;102321.78;5072743;28;20489;-61
2023/10/01 00:22:54;;;;;;;;;;;;;;;14.63;81.50;102326.56;5073320;28;20028;-60
2023/10/01 00:25:21;;;;;;;13.38;7.70;;;;;;;14.56;82.44;102330.00;5072829;28;20366;-60
2023/10/01 00:27:47;;;;;;;12.35;7.88;;;;;;;14.53;82.53;102324.59;5072728;28;20103;-61
2023/10/01 00:30:12;;;;;;;14.18;7.78;;;;;;;14.51;82.69;102329.88;5071443;28;20127;-60
2023/10/01 00:32:39;;;;;;;10.95;7.18;;;;;;;14.39;83.25;102334.03;5073001;28;20108;-61
2023/10/01 00:35:06;;;;;;;12.38;7.78;;;;;;;14.27;83.85;102318.78;5081027;28;20025;-59
2023/10/01 00:37:33;;;;;;;12.95;7.68;;;;;;;14.17;84.26;102320.34;5092631;28;20040;-60
2023/10/01 00:39:59;;;;;;;12.80;7.43;;;;;;;14.08;84.86;102317.50;5092824;28;20024;-60
2023/10/01 00:42:31;;;;;;;14.95;7.65;;;;;;;14.03;85.34;102324.50;5093085;28;20523;-61
2023/10/01 00:44:57;;;;;;;14.83;7.60;;;;;;;14.01;86.06;102315.59;5092722;28;20111;-60
2023/10/01 00:47:25;;;;;;;13.45;7.82;;;;;;;13.90;86.05;102318.03;5092749;28;20036;-60
2023/10/01 00:49:52;;;;;;;13.50;7.63;;;;;;;13.88;85.86;102311.81;5092897;28;20138;-60
2023/10/01 00:52:18;;;;;;;12.52;7.80;;;;;;;13.92;85.69;102323.41;5092696;28;20024;-60
2023/10/01 00:54:45;;;;;;;13.80;7.90;;;;;;;14.00;85.31;102306.75;5092883;28;20031;-60
2023/10/01 00:57:10;;;;;;;11.70;7.78;;;;;;;14.01;85.33;102302.31;5096623;28;20069;-60
2023/10/01 00:59:36;;;;;;;14.57;7.47;;;;;;;14.00;85.38;102300.50;5095059;28;20028;-60
2023/10/01 01:02:06;;;;;;;16.77;7.97;;;;;;;13.88;85.35;102295.84;5096311;28;20028;-60
2023/10/01 01:04:36;;;;;;;11.68;7.10;;;;;;;13.95;85.78;102292.44;5096151;28;20123;-60
2023/10/01 01:07:13;;;;;;;12.07;7.45;;;;;;;14.00;84.89;102285.47;5096508;28;20031;-60
2023/10/01 01:09:40;;;;;;;14.10;6.70;;;;;;;13.98;84.91;102281.88;5094894;28;20032;-60
2023/10/01 01:12:05;;;;;;;14.50;7.15;;;;;;;13.95;85.00;102279.16;5096108;28;20089;-61
2023/10/01 01:14:33;;;;;;;13.30;7.68;;;;;;;13.90;84.53;102286.13;5096183;28;20051;-60
2023/10/01 01:16:59;;;;;;;14.10;7.30;;;;;;;13.93;84.80;102278.25;5096344;28;20154;-60
2023/10/01 01:19:26;;;;;;;13.35;7.05;;;;;;;13.95;84.74;102278.25;5096230;28;20020;-60
2023/10/01 01:21:52;;;;;;;12.90;7.22;;;;;;;13.96;84.77;102277.38;5094663;28;20035;-60
2023/10/01 01:24:22;;;;;;;10.75;7.13;;;;;;;13.97;84.43;102271.22;5095770;28;20020;-61
2023/10/01 01:26:51;;;;;;;11.30;7.00;;;;;;;13.96;84.61;102282.69;5096108;28;20035;-60
2023/10/01 01:29:33;;;;;;;9.82;6.47;;;;;;;13.89;85.03;102278.16;5095894;28;20121;-60
2023/10/01 01:32:07;;;;;;;13.82;6.80;;;;;;;13.84;85.12;102280.72;5095769;28;20058;-60
2023/10/01 01:34:34;;;;;;;11.90;6.45;;;;;;;13.85;84.92;102281.59;5096074;28;20105;-61
2023/10/01 01:37:02;;;;;;;12.32;5.90;;;;;;;13.92;84.73;102278.22;5095363;28;20048;-61
2023/10/01 01:39:48;;;;;;;11.63;6.22;;;;;;;13.94;84.78;102272.06;5095394;28;20032;-60
2023/10/01 01:42:19;;;;;;;11.25;6.20;;;;;;;13.96;84.72;102269.41;5095855;28;20032;-60
2023/10/01 01:44:47;;;;;;;12.68;6.13;;;;;;;13.97;84.87;102265.91;5095477;28;20028;-60
2023/10/01 01:47:16;;;;;;;10.75;6.13;;;;;;;13.97;84.66;102264.16;5095404;28;20032;-61
2023/10/01 01:49:43;;;;;;;11.15;6.68;;;;;;;13.96;85.11;102266.75;5095372;28;20028;-61
2023/10/01 01:52:09;;;;;;;12.02;6.20;;;;;;;13.90;84.94;102264.00;5095232;28;20063;-61
2023/10/01 01:54:37;;;;;;;12.88;6.78;;;;;;;13.84;85.38;102259.47;5095354;28;20474;-60
2023/10/01 01:57:03;;;;;;;10.88;6.88;;;;;;;13.81;85.63;102262.03;5095385;28;20103;-61
2023/10/01 01:59:29;;;;;;;12.48;6.15;;;;;;;13.88;85.43;102260.41;5095452;28;20051;-60
2023/10/01 02:01:55;;;;;;;10.98;6.70;;;;;;;13.85;85.57;102261.25;5095478;28;20449;-60
2023/10/01 02:04:22;;;;;;;9.25;5.90;;;;;;;13.86;85.35;102265.69;5095256;28;20038;-61
2023/10/01 02:06:48;;;;;;;10.30;5.93;;;;;;;13.86;86.20;102257.72;5094143;28;20470;-61
2023/10/01 02:09:19;;;;;;;12.98;7.28;;;;;;;13.82;85.41;102260.28;5094854;28;20032;-59
2023/10/01 02:11:48;;;;;;;12.77;6.82;;;;;;;13.82;85.55;102261.16;5095040;28;20055;-60
2023/10/01 02:14:30;;;;;;;12.18;6.30;;;;;;;13.88;85.50;102253.34;5094793;28;20486;-60
2023/10/01 02:17:03;;;;;;;13.75;5.95;;;;;;;13.95;85.37;102249.91;5095171;28;20067;-60
2023/10/01 02:19:29;;;;;;;15.00;6.15;;;;;;;14.00;84.88;102244.69;5095160;28;20476;-60
2023/10/01 02:22:05;;;;;;;10.38;5.63;;;;;;;14.09;84.82;102247.53;5094685;28;20024;-60
2023/10/01 02:24:44;;;;;;;10.05;5.78;;;;;;;14.21;84.83;102241.53;5094648;28;20054;-60
2023/10/01 02:27:13;;;;;;;13.60;5.90;;;;;;;14.19;84.24;102236.19;5095047;28;20032;-60
2023/10/01 02:32:23;;;;;;;10.27;6.10;;;;;;;14.12;83.55;102230.75;5094842;28;20448;-60
2023/10/01 02:34:48;;;;;;;12.18;5.55;;;;;;;14.01;84.22;102239.41;5094471;28;20051;-61
2023/10/01 02:37:25;;;;;;;10.20;6.07;;;;;;;13.88;84.79;102231.19;5094349;28;20048;-60
2023/10/01 02:39:50;;;;;;;11.77;6.07;;;;;;;13.85;85.17;102234.66;5094560;28;20059;-60
2023/10/01 02:42:21;;;;;;;11.63;6.05;;;;;;;13.68;85.53;102234.34;5094353;28;20482;-60
2023/10/01 02:44:47;;;;;;;12.23;6.28;;;;;;;13.65;85.88;102238.69;5094510;28;20026;-60
2023/10/01 02:47:16;;;;;;;11.48;6.35;;;;;;;13.72;86.24;102245.94;5094168;28;20038;-59
2023/10/01 02:49:54;;;;;;;14.25;6.53;;;;;;;13.78;86.48;102249.59;5094192;28;20027;-60
2023/10/01 02:52:22;;;;;;;11.15;6.03;;;;;;;13.88;85.07;102249.78;5094158;28;20035;-60
2023/10/01 02:54:54;;;;;;;9.93;6.03;;;;;;;13.83;84.70;102252.31;5094338;28;20039;-60
2023/10/01 02:57:26;;;;;;;14.13;6.10;;;;;;;13.79;84.84;102258.47;5094215;28;20495;-60
2023/10/01 03:02:49;;;;;;;11.35;6.20;;;;;;;13.78;85.42;102254.00;5094078;28;20024;-60
2023/10/01 03:05:18;;;;;;;10.02;6.05;;;;;;;13.70;85.41;102251.22;5094140;28;20036;-60
2023/10/01 03:07:45;;;;;;;12.13;6.25;;;;;;;13.68;85.69;102246.72;5094199;28;20388;-61
2023/10/01 03:10:37;;;;;;;12.75;5.90;;;;;;;13.72;85.72;102240.63;5094078;28;20036;-61
2023/10/01 03:12:59;;;;;;;10.52;5.93;;;;;;;13.56;86.17;102239.38;5093234;28;20048;-61
2023/10/01 03:15:28;;;;;;;9.75;5.32;;;;;;;13.44;86.88;102240.03;5093744;28;20540;-60
2023/10/01 03:17:57;;;;;;;10.63;5.95;;;;;;;13.36;87.63;102235.41;5092351;28;20074;-60
2023/10/01 03:23:10;;;;;;;9.25;5.53;;;;;;;13.41;87.64;102234.66;5093905;28;20070;-61
2023/10/01 03:25:40;;;;;;;11.85;6.13;;;;;;;13.37;87.74;102238.13;5093942;28;20040;-60
2023/10/01 03:28:11;;;;;;;10.57;5.80;;;;;;;13.42;88.19;102241.75;5092272;28;20089;-60
2023/10/01 03:30:40;;;;;;;10.18;6.00;;;;;;;13.48;87.64;102239.22;5093563;28;20489;-60
2023/10/01 03:33:07;;;;;;;9.23;5.43;;;;;;;13.61;86.98;102250.09;5093525;28;20024;-60
2023/10/01 03:35:36;;;;;;;10.45;6.07;;;;;;;13.55;87.03;102245.56;5093602;28;20036;-59
2023/10/01 03:38:10;;;;;;;12.30;6.18;;;;;;;13.47;87.47;102236.53;5093137;28;20052;-60
2023/10/01 03:40:57;;;;;;;9.15;5.63;;;;;;;13.38;87.91;102233.69;5093681;28;20028;-60
2023/10/01 03:43:32;;;;;;;10.48;5.90;;;;;;;13.30;88.25;102237.94;5093084;28;20097;-60
2023/10/01 03:46:45;;;;;;;10.32;5.68;;;;;;;13.24;88.70;102244.03;5093671;28;20048;-60
2023/10/01 03:48:58;;;;;;;12.07;5.85;;;;;;;13.20;88.58;102234.16;5090122;28;20465;-60
2023/10/01 03:57:12;;;;;;;11.27;6.00;;;;;;;13.12;89.64;102235.75;5061865;28;20097;-60
2023/10/01 03:59:38;;;;;;;15.77;5.85;;;;;;;13.08;90.05;102232.13;5093452;28;20055;-60
2023/10/01 04:02:07;;;;;;;12.60;5.75;;;;;;;13.02;90.55;102238.19;5093443;28;20020;-60
2023/10/01 04:04:56;;;;;;;11.13;5.25;;;;;;;13.04;90.73;102238.22;5093390;28;20028;-60
2023/10/01 04:07:18;;;;;;;13.02;6.20;;;;;;;13.02;90.96;102242.63;5092979;28;20047;-60
2023/10/01 04:09:47;;;;;;;13.13;6.40;;;;;;;13.03;90.73;102237.34;5093242;28;20024;-60
2023/10/01 04:12:27;;;;;;;12.98;5.85;;;;;;;13.01;90.85;102243.44;5093095;28;20028;-61
2023/10/01 04:14:53;;;;;;;14.75;6.18;;;;;;;12.99;91.09;102238.13;5093042;28;20020;-61
2023/10/01 04:17:19;;;;;;;11.65;5.60;;;;;;;12.99;91.30;102235.47;5092074;28;20032;-61
2023/10/01 04:19:49;;;;;;;18.02;6.20;;;;;;;12.99;91.16;102245.19;5093001;28;20024;-59
2023/10/01 04:22:21;;;;;;;14.23;5.88;;;;;;;13.02;91.00;102242.63;5092906;28;20032;-61
2023/10/01 04:25:00;;;;;;;15.20;6.00;;;;;;;13.03;90.79;102247.06;5092780;28;20035;-60
2023/10/01 04:27:34;;;;;;;12.10;6.07;;;;;;;12.96;91.10;102243.34;5093268;28;20055;-59
2023/10/01 04:30:07;;;;;;;12.70;6.00;;;;;;;12.95;91.11;102240.66;5093594;28;20032;-60
2023/10/01 04:32:33;;;;;;;11.32;5.80;;;;;;;12.88;90.96;102234.31;5097242;28;20031;-59
2023/10/01 04:34:59;;;;;;;11.48;5.68;;;;;;;12.89;91.27;102243.16;5096804;28;20438;-61
2023/10/01 04:37:37;;;;;;;10.43;5.47;;;;;;;12.89;91.15;102241.44;5096545;28;20059;-60
2023/10/01 04:40:31;;;;;;;13.25;5.82;;;;;;;12.91;90.86;102233.50;5096651;28;20043;-59
2023/10/01 04:42:52;;;;;;;13.15;5.93;;;;;;;12.92;90.84;102225.56;5096627;28;20096;-60
2023/10/01 04:45:23;;;;;;;13.02;6.78;;;;;;;12.89;90.77;102222.88;5096575;28;20028;-60
2023/10/01 04:47:55;;;;;;;13.43;6.07;;;;;;;12.90;90.49;102229.06;5096668;28;20032;-60
2023/10/01 04:50:27;;;;;;;13.60;6.60;;;;;;;12.93;90.89;102237.06;5096802;28;20043;-60
2023/10/01 04:52:59;;;;;;;13.13;6.93;;;;;;;12.93;90.88;102237.06;5096825;28;20039;-60
2023/10/01 04:55:28;;;;;;;13.85;6.63;;;;;;;12.91;90.87;102242.34;5096822;28;20031;-60
2023/10/01 04:57:54;;;;;;;14.63;6.50;;;;;;;12.91;90.63;102239.69;5096742;28;20036;-59
2023/10/01 05:00:22;;;;;;;17.52;6.85;;;;;;;12.92;90.70;102241.47;5096649;28;20154;-60
2023/10/01 05:02:49;;;;;;;14.20;6.18;;;;;;;12.96;90.73;102242.44;5096597;28;20173;-61
2023/10/01 05:05:25;;;;;;;15.52;6.50;;;;;;;12.95;90.65;102240.66;5096101;28;20484;-61
2023/10/01 05:07:57;;;;;;;15.13;6.63;;;;;;;12.94;90.56;102231.81;5096301;28;20039;-60
2023/10/01 05:10:26;;;;;;;14.25;6.60;;;;;;;12.93;90.77;102238.00;5096337;28;20035;-60
2023/10/01 05:12:58;;;;;;;15.80;6.68;;;;;;;12.93;90.66;102235.34;5096114;28;20024;-60
2023/10/01 05:15:27;;;;;;;13.35;6.50;;;;;;;12.91;90.91;102229.09;5096202;28;20040;-60
2023/10/01 05:17:55;;;;;;;12.13;6.38;;;;;;;12.96;91.44;102234.50;5096078;28;20031;-60
2023/10/01 05:20:21;;;;;;;16.10;6.47;;;;;;;12.93;90.78;102232.69;5096177;28;20077;-60
2023/10/01 05:22:50;;;;;;;14.90;6.72;;;;;;;12.92;91.01;102237.94;5095990;28;20020;-60
2023/10/01 05:25:18;;;;;;;14.52;6.07;;;;;;;12.94;90.96;102238.88;5095789;28;20028;-61
2023/10/01 05:27:45;;;;;;;15.65;6.55;;;;;;;12.92;90.74;102249.44;5095893;28;20020;-60
2023/10/01 05:30:32;;;;;;;13.85;6.25;;;;;;;12.96;91.20;102251.31;5095756;28;20490;-61
2023/10/01 05:32:58;;;;;;;12.27;6.43;;;;;;;12.98;90.75;102254.00;5094972;28;20032;-60
2023/10/01 05:35:24;;;;;;;15.80;6.72;;;;;;;12.98;90.89;102252.25;5095779;28;20028;-60
2023/10/01 05:37:50;;;;;;;13.95;6.90;;;;;;;12.97;91.22;102254.84;5095197;28;20501;-60
2023/10/01 05:40:15;;;;;;;14.70;6.00;;;;;;;12.96;91.38;102246.00;5095123;28;20029;-60
2023/10/01 05:42:44;;;;;;;14.77;6.53;;;;;;;12.95;91.78;102256.59;5094158;28;20024;-60
2023/10/01 05:45:19;;;;;;;13.80;6.30;;;;;;;12.97;91.79;102260.16;5095001;28;20086;-60
2023/10/01 05:47:51;;;;;;;12.55;6.13;;;;;;;12.98;91.77;102267.28;5095209;28;20486;-60
2023/10/01 05:50:18;;;;;;;15.00;6.07;;;;;;;13.01;91.83;102267.34;5093589;28;20028;-60
2023/10/01 05:52:47;;;;;;;12.98;6.32;;;;;;;13.00;91.88;102257.59;5095093;28;20024;-60
2023/10/01 05:55:12;;;;;;;13.52;6.05;;;;;;;12.97;92.43;102261.06;5093628;28;20541;-60
2023/10/01 05:57:40;;;;;;;13.93;6.60;;;;;;;12.96;92.62;102255.72;5095034;28;20039;-60
2023/10/01 06:00:16;;;;;;;15.10;6.68;;;;;;;12.96;92.67;102247.75;5094974;28;20024;-60
2023/10/01 06:02:47;;;;;;;14.45;6.00;;;;;;;13.02;92.73;102253.22;5094911;28;20032;-60
2023/10/01 06:08:14;;;;;;;12.93;6.40;;;;;;;13.21;92.37;102244.81;5071254;28;20393;-60
2023/10/01 06:10:59;;;;;;;14.85;6.10;;;;;;;13.33;91.86;102253.94;5094695;28;20046;-60
2023/10/01 06:13:24;;;;;;;13.95;6.25;;;;;;;13.39;91.57;102259.38;5094916;28;20094;-60
2023/10/01 06:15:52;;;;;;;12.75;6.40;;;;;;;13.43;91.55;102250.63;5093210;28;20490;-60
2023/10/01 06:18:20;;;;;;;15.73;6.38;;;;;;;13.56;90.96;102252.66;5094802;28;20106;-60
2023/10/01 06:20:46;;;;;;;14.65;6.18;;;;;;;13.68;90.53;102257.34;5094445;28;20039;-60
2023/10/01 06:23:11;;;;;;;17.13;6.70;;;;;;;13.76;90.04;102247.78;5093141;28;20020;-60
2023/10/01 06:25:47;;;;;;;12.13;6.40;;;;;;;13.89;89.82;102254.22;5094620;28;20132;-60
2023/10/01 06:28:20;;;;;;;13.55;6.88;;;;;;;13.97;89.17;102263.25;5094085;28;20032;-60
2023/10/01 06:30:45;;;;;;;;;;;;;;;14.14;89.10;102256.50;5094675;28;20032;-60
2023/10/01 06:33:26;;;;;;;14.52;5.82;;;;;;;14.23;88.78;102259.31;5094141;28;19962;-60
2023/10/01 06:38:37;;;;;;;13.82;6.18;;;;;;;14.50;87.59;102255.38;5094113;28;20131;-60
2023/10/01 06:41:06;;;;;;;11.30;6.18;;;;;;;14.61;86.93;102261.78;5094114;28;20111;-60
2023/10/01 06:43:32;;;;;;;12.88;6.45;;;;;;;14.74;87.19;102265.56;5094126;28;20028;-60
2023/10/01 06:45:59;;;;;;;12.45;6.32;;;;;;;14.84;86.02;102242.63;5094026;28;20038;-61
2023/10/01 06:48:27;;;;;;;12.23;6.35;;;;;;;14.95;86.38;102249.03;5093748;28;20454;-61
2023/10/01 06:50:53;;;;;;;16.10;6.22;;;;;;;15.03;85.35;102242.94;5094016;28;20071;-60
2023/10/01 06:53:20;;;;;;;12.95;6.53;;;;;;;15.08;85.45;102247.44;5093344;28;20035;-61
2023/10/01 06:55:47;;;;;;;13.27;6.85;;;;;;;15.17;84.79;102247.59;5093680;28;20466;-60
2023/10/01 06:58:13;;;;;;;13.23;6.15;;;;;;;15.24;84.49;102242.34;5093897;28;20043;-60
2023/10/01 07:00:41;;;;;;;14.38;6.57;;;;;;;15.36;84.73;102240.72;5093885;28;20020;-60
2023/10/01 07:03:22;;;;;;;12.15;6.45;;;;;;;15.44;83.93;102241.72;5093819;28;20028;-60
2023/10/01 07:05:55;;;;;;;13.65;6.47;;;;;;;15.57;83.64;102240.13;5093482;28;20366;-60
2023/10/01 07:08:37;;;;;;;14.07;6.07;;;;;;;15.69;83.36;102243.84;5093388;28;20458;-60
2023/10/01 07:11:11;;;;;;;15.70;6.60;;;;;;;15.86;82.94;102246.72;5093167;28;20064;-61
2023/10/01 07:13:38;;;;;;;15.77;6.45;;;;;;;15.97;82.29;102239.75;5093759;28;20088;-60
2023/10/01 07:16:03;;;;;;;14.07;6.63;;;;;;;16.09;81.63;102244.28;5093037;28;20478;-61
2023/10/01 07:18:30;;;;;;;14.98;6.22;;;;;;;16.21;82.00;102247.09;5093310;28;20024;-60
2023/10/01 07:21:00;;;;;;;13.25;6.55;;;;;;;16.41;81.45;102241.06;5092975;28;20051;-60
2023/10/01 07:23:26;;;;;;;14.13;7.10;;;;;;;16.51;79.35;102253.59;5092810;28;20044;-60
2023/10/01 07:26:01;;;;;;;15.60;6.53;;;;;;;16.68;80.05;102245.72;5092833;28;20474;-60
2023/10/01 07:28:27;;;;;;;16.85;6.82;;;;;;;16.88;79.26;102256.59;5092805;28;20126;-60
2023/10/01 07:30:56;;;;;;;18.73;7.35;;;;;;;17.00;78.37;102256.66;5092805;28;20028;-61
2023/10/01 07:33:22;;;;;;;15.57;6.80;;;;;;;17.25;77.72;102258.59;5092862;28;20047;-61
2023/10/01 07:36:00;;;;;;;16.48;6.72;;;;;;;17.44;77.64;102254.28;5091509;28;20110;-61
2023/10/01 07:38:46;;;;;;;16.75;6.57;;;;;;;17.56;77.26;102261.47;5092341;28;20123;-60
2023/10/01 07:41:16;;;;;;;14.40;6.45;;;;;;;17.58;75.26;102249.00;5093188;28;20039;-61
2023/10/01 07:43:42;;;;;;;14.25;6.63;;;;;;;17.85;76.17;102260.69;5092834;28;20032;-61
2023/10/01 07:46:08;;;;;;;17.15;7.20;;;;;;;17.96;74.93;102264.31;5092772;28;20111;-60
2023/10/01 07:48:35;;;;;;;19.38;7.20;;;;;;;18.12;74.38;102263.47;5092648;28;20108;-60
2023/10/01 07:51:04;;;;;;;14.55;7.32;;;;;;;18.26;74.00;102261.69;5092601;28;20032;-60
2023/10/01 07:53:33;;;;;;;14.90;7.00;;;;;;;18.48;73.80;102273.31;5092644;28;20107;-61
2023/10/01 07:56:01;;;;;;;14.95;7.53;;;;;;;18.77;72.91;102280.53;5092381;28;20435;-61
2023/10/01 07:58:44;;;;;;;14.68;6.82;;;;;;;19.11;71.95;102275.13;5092481;28;20031;-61
2023/10/01 08:03:55;;;;;;;14.45;7.28;;;;;;;19.66;69.49;102269.66;5092583;28;20097;-61
2023/10/01 08:06:31;;;;;;;16.58;7.47;;;;;;;19.83;68.77;102267.78;5095565;28;20028;-61
2023/10/01 08:09:01;;;;;;;15.65;7.18;;;;;;;20.08;67.70;102271.19;5096660;28;20085;-61
2023/10/01 08:14:11;;;;;;;15.25;7.57;;;;;;;20.39;65.85;102258.50;5097043;28;20077;-61
2023/10/01 08:16:50;;;;;;;15.27;7.30;;;;;;;20.51;65.89;102265.56;5096947;28;20043;-62
2023/10/01 08:19:20;;;;;;;15.52;7.07;;;;;;;20.77;65.43;102265.38;5096905;28;20091;-62
2023/10/01 08:21:54;;;;;;;15.80;7.28;;;;;;;20.98;64.86;102269.63;5096520;28;20036;-61
2023/10/01 08:24:20;;;;;;;15.70;7.30;;;;;;;21.14;64.23;102273.06;5096419;28;20032;-61
2023/10/01 08:27:12;;;;;;;13.77;7.28;;;;;;;21.44;62.46;102269.19;5096673;28;20024;-62
2023/10/01 08:32:22;;;;;;;17.27;7.93;;;;;;;21.67;62.12;102279.66;5096712;28;20123;-61
2023/10/01 08:35:01;;;;;;;16.77;7.70;;;;;;;21.78;61.75;102282.22;5096340;28;20052;-61
2023/10/01 08:37:31;;;;;;;15.05;7.40;;;;;;;21.81;61.99;102276.81;5095780;28;20438;-61
2023/10/01 08:40:00;;;;;;;15.20;7.53;;;;;;;21.99;63.22;102281.94;5096470;28;20119;-61
2023/10/01 08:42:28;;;;;;;15.45;7.40;;;;;;;22.16;62.59;102282.63;5096144;28;20024;-62
2023/10/01 08:45:11;;;;;;;16.50;7.72;;;;;;;22.18;60.94;102280.81;5095868;28;20390;-62
2023/10/01 08:47:37;;;;;;;14.65;6.85;;;;;;;22.18;60.34;102277.22;5096001;28;20036;-62
2023/10/01 08:52:55;;;;;;;13.35;6.90;;;;;;;22.49;60.63;102280.34;5094852;28;20085;-61
2023/10/01 08:55:25;;;;;;;14.95;7.20;;;;;;;22.79;59.61;102278.94;5096391;28;20089;-61
2023/10/01 08:57:55;;;;;;;17.05;7.43;;;;;;;22.95;58.59;102271.50;5095772;28;20063;-62
2023/10/01 09:00:24;;;;;;;15.10;7.85;;;;;;;23.22;58.35;102279.09;5095886;28;20398;-61
2023/10/01 09:02:55;;;;;;;18.48;7.68;;;;;;;23.26;59.06;102279.03;5096165;28;20028;-61
2023/10/01 09:05:24;;;;;;;15.65;7.60;;;;;;;23.44;57.69;102275.97;5095784;28;20024;-61
2023/10/01 09:08:15;;;;;;;16.42;7.38;;;;;;;23.11;58.90;102277.50;5095882;28;20120;-62
2023/10/01 09:10:39;;;;;;;17.27;8.05;;;;;;;22.93;57.71;102282.31;5095033;28;20036;-61
2023/10/01 09:13:08;;;;;;;16.88;7.72;;;;;;;22.98;58.44;102279.53;5095805;28;20032;-61
2023/10/01 09:15:38;;;;;;;16.98;7.97;;;;;;;22.99;58.37;102273.22;5095766;28;20063;-62
2023/10/01 09:18:10;;;;;;;15.55;8.20;;;;;;;23.35;58.99;102270.75;5095704;28;20118;-62
2023/10/01 09:20:42;;;;;;;14.93;7.47;;;;;;;23.51;58.32;102269.53;5095308;28;20482;-61
2023/10/01 09:23:08;;;;;;;18.80;8.45;;;;;;;23.55;56.96;102268.53;5094426;28;20036;-62
2023/10/01 09:25:43;;;;;;;13.82;7.93;;;;;;;23.61;57.50;102257.63;5095310;28;20528;-61
2023/10/01 09:28:20;;;;;;;15.88;8.55;;;;;;;23.66;57.21;102255.75;5095360;28;20055;-62
2023/10/01 09:31:02;;;;;;;19.20;8.48;;;;;;;23.60;57.80;102257.66;5095229;28;20031;-60
2023/10/01 09:33:29;;;;;;;19.13;8.18;;;;;;;23.77;57.71;102246.50;5083276;28;20043;-61
2023/10/01 09:36:02;;;;;;;18.42;8.52;;;;;;;24.09;57.37;102248.50;5075084;28;20103;-61
2023/10/01 09:38:28;;;;;;;14.98;7.85;;;;;;;23.98;56.61;102246.03;5074528;28;20053;-61
2023/10/01 09:40:58;;;;;;;16.10;7.70;;;;;;;23.68;56.55;102247.59;5056955;28;20073;-62
2023/10/01 09:43:24;;;;;;;19.00;8.20;;;;;;;23.56;57.62;102250.56;5074748;28;20473;-62
2023/10/01 09:45:51;;;;;;;16.17;8.05;;;;;;;23.47;57.60;102263.31;5074888;28;20027;-62
2023/10/01 09:48:36;;;;;;;15.45;7.93;;;;;;;23.72;57.99;102247.53;5074693;28;20062;-61
2023/10/01 09:51:07;;;;;;;17.52;7.93;;;;;;;24.20;56.52;102246.44;5074722;28;20170;-62
2023/10/01 09:53:43;;;;;;;15.38;7.70;;;;;;;24.35;56.77;102248.78;5074728;28;20039;-61
2023/10/01 09:56:12;;;;;;;18.65;8.60;;;;;;;24.61;56.16;102250.84;5074628;28;20055;-60
2023/10/01 09:58:46;;;;;;;18.95;7.80;;;;;;;24.48;56.73;102249.38;5074249;28;20024;-62
2023/10/01 10:01:17;;;;;;;15.98;7.90;;;;;;;24.38;56.41;102248.72;5074102;28;20038;-61
2023/10/01 10:03:43;;;;;;;14.30;7.18;;;;;;;24.67;56.17;102242.59;5074452;28;20060;-60
2023/10/01 10:06:10;;;;;;;16.65;7.78;;;;;;;24.73;55.03;102245.13;5074126;28;20482;-60
2023/10/01 10:08:37;;;;;;;15.27;7.78;;;;;;;24.59;56.43;102238.31;5072935;28;20370;-60
2023/10/01 10:11:08;;;;;;;14.80;7.78;;;;;;;24.89;54.80;102245.63;5074325;28;20429;-62
2023/10/01 10:13:48;;;;;;;16.48;7.15;;;;;;;25.07;55.37;102248.75;5073949;28;20024;-62
2023/10/01 10:16:32;;;;;;;17.05;7.35;;;;;;;25.09;54.89;102245.09;5074249;28;20115;-62
2023/10/01 10:19:13;;;;;;;17.55;7.60;;;;;;;25.22;54.40;102237.53;5074011;28;20416;-61
2023/10/01 10:22:05;;;;;;;15.80;7.68;;;;;;;25.01;55.69;102244.41;5074080;28;20029;-62
2023/10/01 10:24:36;;;;;;;15.73;7.80;;;;;;;25.10;54.84;102232.50;5073695;28;20031;-62
2023/10/01 10:27:16;;;;;;;13.90;7.10;;;;;;;25.10;54.15;102233.38;5073870;28;20068;-61
2023/10/01 10:29:57;;;;;;;15.60;7.32;;;;;;;25.51;54.87;102231.28;5073600;28;20033;-62
2023/10/01 10:32:28;;;;;;;16.00;7.32;;;;;;;25.54;53.89;102233.91;5073914;28;20036;-61
2023/10/01 10:35:03;;;;;;;15.90;7.82;;;;;;;25.37;54.04;102231.69;5073621;28;20056;-61
2023/10/01 10:37:35;;;;;;;15.80;7.68;;;;;;;25.11;54.37;102221.63;5073168;28;20502;-62
2023/10/01 10:40:44;;;;;;;16.40;7.80;;;;;;;25.29;54.00;102213.91;5073557;28;20020;-61
2023/10/01 10:42:57;;;;;;;15.95;7.65;;;;;;;25.44;54.32;102205.34;5070318;28;20086;-62
2023/10/01 10:45:24;;;;;;;15.95;7.63;;;;;;;25.38;54.88;102217.22;5073319;28;20134;-62
2023/10/01 10:48:03;;;;;;;16.80;7.70;;;;;;;25.51;54.12;102214.16;5073309;28;20371;-62
2023/10/01 10:50:45;;;;;;;16.00;7.75;;;;;;;25.77;53.98;102217.00;5073429;28;20036;-62
2023/10/01 10:53:15;;;;;;;;;;;;;;;25.90;53.44;102212.06;5073651;28;20494;-62
2023/10/01 10:55:53;;;;;;;16.13;7.72;;;;;;;25.84;53.44;102204.16;5073076;28;19908;-61
2023/10/01 10:58:20;;;;;;;16.50;7.38;;;;;;;26.03;53.02;102215.28;5073194;28;20043;-61
2023/10/01 11:00:48;;;;;;;16.52;7.97;;;;;;;26.10;52.86;102206.03;5071606;28;20020;-62
2023/10/01 11:03:16;;;;;;;14.55;7.45;;;;;;;26.46;52.51;102210.25;5073229;28;20107;-62
2023/10/01 11:05:52;;;;;;;15.73;7.13;;;;;;;26.74;51.01;102217.44;5072917;28;20074;-61
2023/10/01 11:08:28;;;;;;;16.10;7.22;;;;;;;26.48;51.96;102209.34;5073311;28;20025;-63
2023/10/01 11:10:55;;;;;;;15.15;7.22;;;;;;;26.75;50.72;102211.06;5072730;28;20478;-62
2023/10/01 11:13:42;;;;;;;17.90;7.60;;;;;;;26.87;50.86;102204.34;5072818;28;20044;-62
2023/10/01 11:16:14;;;;;;;13.57;6.97;;;;;;;26.74;50.82;102206.59;5071645;28;20039;-62
2023/10/01 11:18:48;;;;;;;14.35;7.07;;;;;;;26.87;50.14;102199.78;5072881;28;20044;-61
2023/10/01 11:21:24;;;;;;;15.25;7.43;;;;;;;26.82;49.85;102204.50;5072944;28;20048;-62
2023/10/01 11:23:53;;;;;;;14.07;7.65;;;;;;;26.78;49.83;102194.69;5072784;28;20082;-61
2023/10/01 11:26:29;;;;;;;14.27;7.20;;;;;;;26.93;50.18;102185.09;5071264;28;20024;-62
2023/10/01 11:29:00;;;;;;;16.10;7.85;;;;;;;26.82;50.50;102185.53;5072771;28;20443;-62
2023/10/01 11:31:31;;;;;;;16.23;8.10;;;;;;;27.11;52.78;102179.06;5072965;28;20049;-62
2023/10/01 11:34:21;;;;;;;16.40;7.90;;;;;;;27.07;50.96;102168.34;5072904;28;20107;-61
2023/10/01 11:36:56;;;;;;;14.63;7.57;;;;;;;27.31;50.07;102169.25;5072228;28;20052;-62
2023/10/01 11:39:49;;;;;;;15.55;7.80;;;;;;;27.48;48.59;102184.91;5072464;28;20467;-61
2023/10/01 11:42:38;;;;;;;18.33;7.40;;;;;;;27.19;48.86;102174.25;5072528;28;20032;-62
2023/10/01 11:45:29;;;;;;;14.27;7.57;;;;;;;27.29;48.62;102166.63;5071249;28;20423;-62
2023/10/01 11:48:19;;;;;;;17.63;8.20;;;;;;;26.81;48.98;102170.19;5072316;28;20033;-62
2023/10/01 11:50:52;;;;;;;15.50;7.65;;;;;;;26.99;48.94;102165.91;5072542;28;20123;-62
2023/10/01 11:53:28;;;;;;;15.27;7.57;;;;;;;26.92;49.24;102170.66;5072409;28;20367;-61
2023/10/01 11:56:01;;;;;;;18.48;7.72;;;;;;;27.10;50.13;102165.53;5072687;28;20041;-62
2023/10/01 11:58:32;;;;;;;14.20;7.07;;;;;;;27.44;47.22;102170.56;5072284;28;20044;-62
2023/10/01 12:01:00;;;;;;;14.70;7.47;;;;;;;27.46;47.03;102164.16;5072360;28;20028;-62
2023/10/01 12:03:26;;;;;;;13.65;7.50;;;;;;;27.76;48.29;102154.88;5072438;28;20036;-61
2023/10/01 12:05:56;;;;;;;16.95;8.10;;;;;;;27.69;46.55;102156.91;5072174;28;20056;-61
2023/10/01 12:08:34;;;;;;;14.77;7.80;;;;;;;27.74;47.25;102151.31;5072131;28;20086;-62